Wednesday, February 22, 2017, 12:29 PM EST

KSEG, Selinsgrove Penn Valley Airport

Location: Selinsgrove, PA, United States Lat: 40.817
Local Time: 12:29 PM EST (17:29 GMT) Lon: -76.867
Time Zone: US/Eastern Elev: 449 ft

Show me the last for .
Show Decoded

2017-02-22 11:53 METAR KSEG 221653Z AUTO VRB05KT 10SM OVC095 11/03 A2996 RMK AO2 SLP148 T01060033
                 =
2017-02-22 10:53 METAR KSEG 221553Z AUTO 18006KT 10SM OVC100 09/03 A2999 RMK AO2 SLP156 T00890028
                 =
2017-02-22 09:53 METAR KSEG 221453Z AUTO 19003KT 10SM BKN085 08/02 A3000 RMK AO2 SLP162 T00830022
                 58004 =
2017-02-22 08:53 METAR KSEG 221353Z AUTO 00000KT 10SM CLR 07/02 A3002 RMK AO2 SLP166 T00720017 =
2017-02-22 07:53 METAR KSEG 221253Z AUTO 00000KT 10SM SCT060 OVC090 06/02 A3002 RMK AO2 SLP168
                 T00610017 =
2017-02-22 06:53 METAR KSEG 221153Z AUTO 00000KT 10SM OVC090 06/02 A3002 RMK AO2 SLP167 T00560017
                 10078 20056 53001 =
2017-02-22 05:53 METAR KSEG 221053Z AUTO 19003KT 10SM FEW070 OVC100 06/01 A3002 RMK AO2 SLP166
                 T00610011 =
2017-02-22 04:53 METAR KSEG 220953Z AUTO 00000KT 10SM OVC100 07/01 A3001 RMK AO2 SLP164 T00670006
                 =
2017-02-21 15:53 METAR KSEG 212053Z AUTO 19008KT 10SM CLR 09/M03 A3014 RMK AO2 SLP209 T00941028
                 58027 =
2017-02-21 14:53 METAR KSEG 211953Z AUTO 18010G18KT 10SM CLR 09/M03 A3016 RMK AO2 SLP218
                 T00891033 =
2017-02-21 13:53 METAR KSEG 211853Z AUTO 20008KT 10SM CLR 08/M04 A3019 RMK AO2 SLP227 T00831044 =
2017-02-21 12:53 METAR KSEG 211753Z AUTO 20008KT 10SM CLR 08/M06 A3022 RMK AO2 SLP235 T00831056
                 10083 21028 58028 =

Support USWX by starting your Amazon purchase here.